createdAt,value
2018-11-22T00:00:00.321Z,101811.12
2018-11-22T00:02:26.996Z,101815.86
2018-11-22T00:04:53.726Z,101807.41
2018-11-22T00:07:20.674Z,101807.92
2018-11-22T00:09:47.331Z,101811.64
2018-11-22T00:12:13.994Z,101811.28
2018-11-22T00:14:40.914Z,101809.87
2018-11-22T00:17:07.593Z,101812.87
2018-11-22T00:19:34.257Z,101807.05
2018-11-22T00:22:01.236Z,101805.97
2018-11-22T00:24:27.887Z,101807.04
2018-11-22T00:26:54.548Z,101806.33
2018-11-22T00:29:21.251Z,101804.05
2018-11-22T00:31:47.940Z,101802.09
2018-11-22T00:34:14.592Z,101803.69
2018-11-22T00:36:41.655Z,101809.67
2018-11-22T00:39:09.737Z,101803.49
2018-11-22T00:41:36.515Z,101805.09
2018-11-22T00:44:03.520Z,101801.89
2018-11-22T00:46:30.166Z,101805.45
2018-11-22T00:48:56.826Z,101804.57
2018-11-22T00:51:23.500Z,101807.40
2018-11-22T00:53:50.142Z,101812.34
2018-11-22T00:56:16.820Z,101812.52
2018-11-22T00:58:43.477Z,101815.52
2018-11-22T01:01:10.149Z,101812.36
2018-11-22T01:03:36.812Z,101812.16
2018-11-22T01:06:03.849Z,101808.44
2018-11-22T01:08:30.684Z,101809.31
2018-11-22T01:10:57.780Z,101812.16
2018-11-22T01:13:24.689Z,101817.82
2018-11-22T01:15:51.339Z,101811.99
2018-11-22T01:18:17.994Z,101812.70
2018-11-22T01:20:44.661Z,101808.28
2018-11-22T01:23:11.350Z,101805.27
2018-11-22T01:25:38.015Z,101811.80
2018-11-22T01:28:04.765Z,101813.39
2018-11-22T01:30:31.529Z,101805.80
2018-11-22T01:32:58.220Z,101805.61
2018-11-22T01:35:25.377Z,101805.80
2018-11-22T01:37:52.074Z,101803.48
2018-11-22T01:40:20.578Z,101799.09
2018-11-22T01:42:47.242Z,101803.84
2018-11-22T01:45:15.437Z,101799.42
2018-11-22T01:47:42.201Z,101808.89
2018-11-22T01:50:10.472Z,101800.11
2018-11-22T01:52:37.471Z,101797.68
2018-11-22T01:55:05.656Z,101802.13
2018-11-22T01:57:32.314Z,101807.30
2018-11-22T01:59:58.996Z,101808.12
2018-11-22T02:02:25.661Z,101806.06
2018-11-22T02:04:52.306Z,101798.84
2018-11-22T02:07:18.973Z,101805.96
2018-11-22T02:09:46.205Z,101805.77
2018-11-22T02:12:12.937Z,101802.95
2018-11-22T02:14:39.605Z,101805.63
2018-11-22T02:17:06.382Z,101804.19
2018-11-22T02:19:33.026Z,101802.97
2018-11-22T02:21:59.684Z,101799.25
2018-11-22T02:24:26.606Z,101800.66
2018-11-22T02:26:53.269Z,101801.73
2018-11-22T02:29:19.995Z,101797.84
2018-11-22T02:31:46.718Z,101802.97
2018-11-22T02:34:13.358Z,101803.48
2018-11-22T02:36:40.027Z,101804.21
2018-11-22T02:39:07.531Z,101800.50
2018-11-22T02:41:34.181Z,101809.67
2018-11-22T02:44:01.102Z,101807.56
2018-11-22T02:46:27.774Z,101802.81
2018-11-22T02:48:54.437Z,101799.09
2018-11-22T02:51:21.095Z,101807.56
2018-11-22T02:53:47.770Z,101810.03
2018-11-22T02:56:14.586Z,101804.05
2018-11-22T02:58:41.259Z,101805.61
2018-11-22T03:01:08.053Z,101803.69
2018-11-22T03:03:34.725Z,101806.31
2018-11-22T03:06:01.450Z,101805.08
2018-11-22T03:08:28.093Z,101804.70
2018-11-22T03:10:54.738Z,101804.91
2018-11-22T03:13:21.819Z,101800.13
2018-11-22T03:15:48.603Z,101799.42
2018-11-22T03:18:15.288Z,101796.06
2018-11-22T03:20:42.101Z,101794.67
2018-11-22T03:23:08.758Z,101790.25
2018-11-22T03:25:35.746Z,101790.77
2018-11-22T03:28:02.900Z,101789.01
2018-11-22T03:30:30.123Z,101796.95
2018-11-22T03:32:56.790Z,101792.20
2018-11-22T03:35:24.778Z,101794.31
2018-11-22T03:37:51.438Z,101791.84
2018-11-22T03:40:19.653Z,101791.48
2018-11-22T03:42:46.343Z,101790.24
2018-11-22T03:45:13.849Z,101790.24
2018-11-22T03:47:40.943Z,101791.84
2018-11-22T03:50:09.568Z,101787.05
2018-11-22T03:52:36.338Z,101794.12
2018-11-22T03:55:04.085Z,101787.59
2018-11-22T03:57:30.801Z,101789.53
2018-11-22T03:59:57.442Z,101783.18
2018-11-22T04:02:24.160Z,101778.94
2018-11-22T04:04:50.978Z,101773.08
2018-11-22T04:07:17.721Z,101779.83
2018-11-22T04:09:44.853Z,101777.52
2018-11-22T04:12:11.757Z,101780.34
2018-11-22T04:14:38.434Z,101780.53
2018-11-22T04:17:05.250Z,101778.03
2018-11-22T04:19:32.320Z,101772.92
2018-11-22T04:21:58.973Z,101781.06
2018-11-22T04:24:25.638Z,101779.63
2018-11-22T04:26:52.331Z,101780.70
2018-11-22T04:29:18.978Z,101782.80
2018-11-22T04:31:45.901Z,101779.98
2018-11-22T04:34:12.675Z,101772.77
2018-11-22T04:36:39.353Z,101777.35
2018-11-22T04:39:07.863Z,101777.52
2018-11-22T04:41:34.538Z,101774.52
2018-11-22T04:44:01.194Z,101776.47
2018-11-22T04:46:29.999Z,101772.56
2018-11-22T04:48:56.771Z,101768.49
2018-11-22T04:51:23.532Z,101768.69
2018-11-22T04:53:50.193Z,101771.33
2018-11-22T04:56:16.892Z,101776.11
2018-11-22T04:58:43.562Z,101774.86
2018-11-22T05:01:10.226Z,101777.50
2018-11-22T05:03:36.931Z,101774.44
2018-11-22T05:06:03.696Z,101770.05
2018-11-22T05:08:30.360Z,101773.14
2018-11-22T05:10:57.022Z,101769.23
2018-11-22T05:13:23.678Z,101767.77
2018-11-22T05:15:50.350Z,101769.88
2018-11-22T05:18:17.029Z,101761.59
2018-11-22T05:20:43.677Z,101765.31
2018-11-22T05:23:10.342Z,101764.59
2018-11-22T05:25:37.009Z,101759.65
2018-11-22T05:28:03.901Z,101760.50
2018-11-22T05:30:30.552Z,101759.47
2018-11-22T05:32:57.210Z,101765.47
2018-11-22T05:35:24.198Z,101757.16
2018-11-22T05:37:50.920Z,101757.53
2018-11-22T05:40:19.234Z,101754.88
2018-11-22T05:42:45.917Z,101758.42
2018-11-22T05:45:14.561Z,101755.44
2018-11-22T05:47:41.289Z,101757.97
2018-11-22T05:50:09.726Z,101754.69
2018-11-22T05:52:36.444Z,101756.39
2018-11-22T05:55:03.531Z,101759.80
2018-11-22T05:57:30.190Z,101755.89
2018-11-22T05:59:56.946Z,101751.15
2018-11-22T06:02:23.628Z,101759.14
2018-11-22T06:04:50.284Z,101750.63
2018-11-22T06:07:16.949Z,101751.70
2018-11-22T06:09:43.658Z,101752.59
2018-11-22T06:12:10.326Z,101752.60
2018-11-22T06:14:37.018Z,101753.83
2018-11-22T06:17:03.811Z,101753.99
2018-11-22T06:19:30.493Z,101762.48
2018-11-22T06:21:57.241Z,101761.06
2018-11-22T06:24:23.885Z,101763.03
2018-11-22T06:26:50.586Z,101768.33
2018-11-22T06:29:17.358Z,101768.84
2018-11-22T06:31:44.029Z,101765.33
2018-11-22T06:34:10.682Z,101763.02
2018-11-22T06:36:37.405Z,101767.97
2018-11-22T06:39:06.396Z,101773.08
2018-11-22T06:41:33.545Z,101771.52
2018-11-22T06:44:00.178Z,101775.23
2018-11-22T06:46:26.842Z,101770.28
2018-11-22T06:48:53.531Z,101774.16
2018-11-22T06:51:20.192Z,101777.16
2018-11-22T06:53:46.844Z,101778.03
2018-11-22T06:56:13.805Z,101780.53
2018-11-22T06:58:40.524Z,101780.51
2018-11-22T07:01:07.185Z,101786.70
2018-11-22T07:03:33.859Z,101783.17
2018-11-22T07:06:00.520Z,101783.69
2018-11-22T07:08:27.185Z,101784.05
2018-11-22T07:10:53.888Z,101781.94
2018-11-22T07:13:20.578Z,101782.45
2018-11-22T07:15:47.275Z,101782.81
2018-11-22T07:18:13.954Z,101787.06
2018-11-22T07:20:40.617Z,101781.94
2018-11-22T07:23:07.278Z,101784.05
2018-11-22T07:25:33.944Z,101781.06
2018-11-22T07:28:00.605Z,101790.25
2018-11-22T07:30:42.321Z,101785.14
2018-11-22T07:33:04.925Z,101790.77
2018-11-22T07:35:32.805Z,101790.96
2018-11-22T07:37:59.474Z,101787.94
2018-11-22T07:40:27.700Z,101785.45
2018-11-22T07:42:54.354Z,101791.12
2018-11-22T07:45:25.868Z,101786.16
2018-11-22T07:47:53.455Z,101786.88
2018-11-22T07:50:21.020Z,101787.23
2018-11-22T07:52:47.742Z,101786.17
2018-11-22T07:55:15.414Z,101788.11
2018-11-22T07:57:42.075Z,101789.00
2018-11-22T08:00:10.838Z,101783.19
2018-11-22T08:02:37.684Z,101788.84
2018-11-22T08:05:05.146Z,101781.95
2018-11-22T08:07:31.850Z,101785.45
2018-11-22T08:09:58.503Z,101786.17
2018-11-22T08:12:26.032Z,101789.72
2018-11-22T08:14:51.851Z,101788.48
2018-11-22T08:17:18.538Z,101787.23
2018-11-22T08:19:45.243Z,101789.00
2018-11-22T08:22:11.898Z,101789.72
2018-11-22T08:24:38.560Z,101791.84
2018-11-22T08:27:05.333Z,101798.73
2018-11-22T12:18:07.156Z,101737.77
2018-11-22T12:20:34.524Z,101735.83
2018-11-22T12:23:02.032Z,101733.77
2018-11-22T12:25:29.321Z,101738.98
2018-11-22T12:27:58.992Z,101733.97
2018-11-22T12:30:27.416Z,101738.08
2018-11-22T12:33:00.248Z,101733.80
2018-11-22T12:35:33.029Z,101735.86
2018-11-22T12:38:06.590Z,101726.48
2018-11-22T12:40:33.663Z,101728.50
2018-11-22T12:43:00.738Z,101724.27
2018-11-22T12:45:28.360Z,101708.94
2018-11-22T12:47:55.698Z,101721.55
2018-11-22T12:50:22.784Z,101714.67
2018-11-22T12:52:50.200Z,101719.00
2018-11-22T12:55:17.278Z,101714.73
2018-11-22T12:57:44.388Z,101714.83
2018-11-22T13:00:13.465Z,101715.94
2018-11-22T13:02:40.740Z,101707.55
2018-11-22T13:05:09.245Z,101719.23
2018-11-22T13:07:36.613Z,101712.47
2018-11-22T13:10:05.922Z,101716.01
2018-11-22T13:12:33.537Z,101720.69
2018-11-22T13:15:00.819Z,101718.87
2018-11-22T13:17:27.912Z,101723.56
2018-11-22T13:19:54.984Z,101724.66
2018-11-22T13:22:22.053Z,101718.55
2018-11-22T13:24:49.698Z,101716.90
2018-11-22T13:27:16.773Z,101718.36
2018-11-22T13:29:43.981Z,101717.30
2018-11-22T13:32:11.323Z,101711.02
2018-11-22T13:34:38.676Z,101704.70
2018-11-22T13:37:06.054Z,101713.50
2018-11-22T13:39:33.329Z,101713.94
2018-11-22T13:42:00.644Z,101710.38
2018-11-22T13:44:27.745Z,101715.48
2018-11-22T13:46:54.816Z,101711.35
2018-11-22T13:49:21.885Z,101709.95
2018-11-22T13:51:49.336Z,101706.47
2018-11-22T13:54:16.764Z,101707.98
2018-11-22T13:56:44.293Z,101702.32
2018-11-22T13:59:12.164Z,101702.58
2018-11-22T14:01:39.597Z,101712.09
2018-11-22T14:04:06.665Z,101703.20
2018-11-22T14:06:33.742Z,101703.89
2018-11-22T14:09:01.561Z,101705.30
2018-11-22T14:11:28.714Z,101704.85
2018-11-22T14:14:03.762Z,101707.36
2018-11-22T14:16:31.066Z,101702.70
2018-11-22T14:18:58.139Z,101704.81
2018-11-22T14:21:25.429Z,101699.77
2018-11-22T14:23:53.017Z,101692.47
2018-11-22T14:26:20.230Z,101691.42
2018-11-22T14:28:47.492Z,101697.28
2018-11-22T14:31:15.113Z,101692.66
2018-11-22T14:33:43.541Z,101694.53
2018-11-22T14:36:10.955Z,101690.97
2018-11-22T14:38:38.034Z,101686.93
2018-11-22T14:41:05.805Z,101696.53
2018-11-22T14:43:32.913Z,101697.37
2018-11-22T14:45:59.977Z,101696.09
2018-11-22T14:48:27.482Z,101694.00
2018-11-22T14:51:00.925Z,101699.27
2018-11-22T14:53:28.456Z,101696.41
2018-11-22T14:55:55.590Z,101695.86
2018-11-22T14:58:22.729Z,101698.49
2018-11-22T15:00:49.780Z,101692.23
2018-11-22T15:03:17.000Z,101689.73
2018-11-22T15:05:44.457Z,101690.98
2018-11-22T15:08:11.524Z,101684.16
2018-11-22T15:10:38.597Z,101688.31
2018-11-22T15:13:06.284Z,101690.34
2018-11-22T15:15:33.374Z,101680.14
2018-11-22T15:18:00.513Z,101691.70
2018-11-22T15:20:28.140Z,101687.98
2018-11-22T15:22:55.296Z,101695.41
2018-11-22T15:25:25.713Z,101687.69
2018-11-22T15:27:53.095Z,101690.23
2018-11-22T15:30:22.688Z,101696.10
2018-11-22T15:32:50.060Z,101697.25
2018-11-22T15:35:18.633Z,101696.02
2018-11-22T15:37:46.609Z,101700.61
2018-11-22T15:40:16.120Z,101703.39
2018-11-22T15:42:43.909Z,101700.17
2018-11-22T15:45:12.598Z,101702.29
2018-11-22T15:47:39.958Z,101700.39
2018-11-22T15:50:09.051Z,101704.62
2018-11-22T15:52:36.152Z,101702.73
2018-11-22T15:55:03.761Z,101707.61
2018-11-22T15:57:30.840Z,101708.08
2018-11-22T15:59:57.899Z,101709.18
2018-11-22T16:02:25.361Z,101710.09
2018-11-22T16:04:52.484Z,101702.44
2018-11-22T16:07:19.550Z,101714.36
2018-11-22T16:09:46.908Z,101698.02
2018-11-22T16:12:13.956Z,101711.35
2018-11-22T16:14:41.673Z,101701.06
2018-11-22T16:17:08.993Z,101711.41
2018-11-22T16:19:36.768Z,101708.69
2018-11-22T16:22:04.162Z,101704.57
2018-11-22T16:24:31.789Z,101715.17
2018-11-22T16:26:59.136Z,101724.92
2018-11-22T16:29:26.267Z,101720.98
2018-11-22T16:31:53.781Z,101727.67
2018-11-22T16:34:20.941Z,101717.91
2018-11-22T16:36:48.038Z,101719.94
2018-11-22T16:39:15.137Z,101713.64
2018-11-22T16:41:42.384Z,101716.10
2018-11-22T16:44:09.440Z,101706.20
2018-11-22T16:46:36.552Z,101710.98
2018-11-22T16:49:03.931Z,101707.98
2018-11-22T16:51:30.990Z,101698.30
2018-11-22T16:53:58.113Z,101703.93
2018-11-22T16:56:25.564Z,101703.93
2018-11-22T16:58:52.614Z,101699.48
2018-11-22T17:01:19.704Z,101706.50
2018-11-22T17:03:47.009Z,101706.72
2018-11-22T17:06:14.096Z,101705.05
2018-11-22T17:08:41.189Z,101707.32
2018-11-22T17:11:08.528Z,101703.09
2018-11-22T17:13:35.780Z,101696.92
2018-11-22T17:16:02.903Z,101710.02
2018-11-22T17:18:30.154Z,101710.17
2018-11-22T17:20:57.237Z,101702.15
2018-11-22T17:23:24.374Z,101709.20
2018-11-22T17:25:51.457Z,101697.75
2018-11-22T17:28:18.528Z,101700.42
2018-11-22T17:30:45.619Z,101697.91
2018-11-22T17:33:12.752Z,101700.93
2018-11-22T17:35:40.617Z,101700.59
2018-11-22T17:38:08.472Z,101702.20
2018-11-22T17:40:37.169Z,101701.11
2018-11-22T17:43:04.896Z,101705.78
2018-11-22T17:45:33.440Z,101710.77
2018-11-22T17:48:00.940Z,101707.29
2018-11-22T17:50:29.785Z,101708.13
2018-11-22T17:52:57.217Z,101707.77
2018-11-22T17:55:25.634Z,101707.11
2018-11-22T17:57:52.690Z,101704.02
2018-11-22T18:00:22.376Z,101707.27
2018-11-22T18:02:50.612Z,101713.79
2018-11-22T18:05:17.718Z,101710.66
2018-11-22T18:07:45.196Z,101709.87
2018-11-22T18:10:14.416Z,101712.77
2018-11-22T18:12:42.591Z,101715.18
2018-11-22T18:15:10.968Z,101711.94
2018-11-22T18:17:38.241Z,101714.05
2018-11-22T18:20:08.632Z,101711.34
2018-11-22T18:22:35.783Z,101714.50
2018-11-22T18:25:03.254Z,101712.70
2018-11-22T18:27:33.931Z,101716.67
2018-11-22T18:30:04.640Z,101719.46
2018-11-22T18:32:32.023Z,101723.56
2018-11-22T18:34:59.112Z,101726.77
2018-11-22T18:37:26.538Z,101732.02
2018-11-22T18:39:53.804Z,101726.48
2018-11-22T18:42:20.905Z,101721.09
2018-11-22T18:44:48.589Z,101716.38
2018-11-22T18:47:16.410Z,101720.44
2018-11-22T18:49:43.664Z,101721.20
2018-11-22T18:52:11.013Z,101720.08
2018-11-22T18:54:38.261Z,101725.61
2018-11-22T18:57:06.559Z,101722.05
2018-11-22T18:59:33.841Z,101718.25
2018-11-22T19:02:01.570Z,101715.48
2018-11-22T19:04:28.632Z,101721.42
2018-11-22T19:06:56.632Z,101719.80
2018-11-22T19:09:24.137Z,101719.11
2018-11-22T19:11:51.507Z,101713.31
2018-11-22T19:14:19.048Z,101715.01
2018-11-22T19:16:46.110Z,101707.83
2018-11-22T19:19:13.345Z,101704.87
2018-11-22T19:21:41.076Z,101707.72
2018-11-22T19:24:08.029Z,101709.38
2018-11-22T19:26:35.110Z,101712.48
2018-11-22T19:29:02.729Z,101709.88
2018-11-22T19:31:29.960Z,101708.61
2018-11-22T19:33:57.036Z,101705.64
2018-11-22T19:36:24.138Z,101704.55
2018-11-22T19:38:51.225Z,101707.64
2018-11-22T19:41:18.297Z,101706.72
2018-11-22T19:48:40.760Z,101703.91
2018-11-22T19:51:07.852Z,101702.73
2018-11-22T19:53:35.299Z,101708.13
2018-11-22T19:56:02.397Z,101702.87
2018-11-22T19:58:29.513Z,101705.53
2018-11-22T20:00:56.932Z,101700.91
2018-11-22T20:03:24.092Z,101706.04
2018-11-22T20:05:51.372Z,101706.12
2018-11-22T20:08:19.245Z,101707.75
2018-11-22T20:10:46.789Z,101707.77
2018-11-22T20:13:14.185Z,101699.52
2018-11-22T20:15:41.308Z,101696.84
2018-11-22T20:18:09.467Z,101712.53
2018-11-22T20:20:37.061Z,101703.46
2018-11-22T20:23:04.195Z,101707.00
2018-11-22T20:25:31.282Z,101709.72
2018-11-22T20:27:59.011Z,101711.20
2018-11-22T20:30:30.745Z,101716.79
2018-11-22T20:32:57.844Z,101711.17
2018-11-22T20:35:25.287Z,101706.33
2018-11-22T20:37:52.918Z,101708.63
2018-11-22T20:40:21.232Z,101705.03
2018-11-22T20:42:48.599Z,101700.44
2018-11-22T20:45:17.223Z,101699.36
2018-11-22T20:47:45.403Z,101701.98
2018-11-22T20:50:14.764Z,101704.13
2018-11-22T20:52:42.052Z,101706.47
2018-11-22T20:55:12.088Z,101701.59
2018-11-22T20:57:39.956Z,101704.08
2018-11-22T21:00:10.690Z,101705.08
2018-11-22T21:02:38.116Z,101708.64
2018-11-22T21:05:06.114Z,101703.69
2018-11-22T21:07:33.189Z,101702.15
2018-11-22T21:10:00.264Z,101708.86
2018-11-22T21:12:27.503Z,101704.77
2018-11-22T21:14:54.880Z,101704.91
2018-11-22T21:17:22.165Z,101703.02
2018-11-22T21:19:49.276Z,101703.30
2018-11-22T21:22:16.336Z,101703.30
2018-11-22T21:24:43.392Z,101704.04
2018-11-22T21:27:10.676Z,101702.66
2018-11-22T21:29:37.751Z,101708.13
2018-11-22T21:32:05.273Z,101712.55
2018-11-22T21:34:32.376Z,101710.45
2018-11-22T21:36:59.654Z,101704.86
2018-11-22T21:39:26.719Z,101704.91
2018-11-22T21:41:54.065Z,101698.89
2018-11-22T21:44:21.737Z,101705.36
2018-11-22T21:46:49.272Z,101704.16
2018-11-22T21:49:16.577Z,101704.72
2018-11-22T21:51:44.720Z,101702.27
2018-11-22T21:54:11.794Z,101700.47
2018-11-22T21:56:38.912Z,101698.50
2018-11-22T21:59:05.993Z,101704.48
2018-11-22T22:01:33.353Z,101705.63
2018-11-22T22:04:00.426Z,101700.42
2018-11-22T22:06:27.499Z,101696.48
2018-11-22T22:08:55.778Z,101703.02
2018-11-22T22:11:23.141Z,101697.09
2018-11-22T22:13:50.229Z,101696.40
2018-11-22T22:16:17.341Z,101694.77
2018-11-22T22:18:44.408Z,101698.84
2018-11-22T22:21:11.479Z,101694.91
2018-11-22T22:23:38.709Z,101696.84
2018-11-22T22:26:05.792Z,101687.39
2018-11-22T22:28:33.322Z,101690.31
2018-11-22T22:31:01.045Z,101684.24
2018-11-22T22:33:28.115Z,101683.19
2018-11-22T22:35:55.224Z,101683.75
2018-11-22T22:38:22.493Z,101685.20
2018-11-22T22:40:49.584Z,101695.31
2018-11-22T22:43:16.643Z,101689.35
2018-11-22T22:45:44.241Z,101691.80
2018-11-22T22:48:11.918Z,101692.92
2018-11-22T22:50:39.645Z,101688.25
2018-11-22T22:53:07.574Z,101695.45
2018-11-22T22:55:34.657Z,101694.55
2018-11-22T22:58:01.724Z,101694.96
2018-11-22T23:00:35.031Z,101699.81
2018-11-22T23:03:04.334Z,101700.48
2018-11-22T23:05:31.763Z,101700.54
2018-11-22T23:07:59.317Z,101699.84
2018-11-22T23:10:26.488Z,101696.00
2018-11-22T23:12:54.275Z,101697.38
2018-11-22T23:15:21.922Z,101695.36
2018-11-22T23:17:49.042Z,101691.73
2018-11-22T23:20:18.281Z,101691.45
2018-11-22T23:22:45.822Z,101698.11
2018-11-22T23:25:13.613Z,101694.31
2018-11-22T23:27:40.854Z,101693.11
2018-11-22T23:30:17.284Z,101689.87
2018-11-22T23:32:46.605Z,101686.48
2018-11-22T23:35:17.348Z,101687.37
2018-11-22T23:37:44.600Z,101683.21
2018-11-22T23:40:13.147Z,101687.20
2018-11-22T23:42:40.766Z,101691.31
2018-11-22T23:45:09.212Z,101693.16
2018-11-22T23:47:36.777Z,101689.25
2018-11-22T23:50:05.104Z,101685.81
2018-11-22T23:52:32.200Z,101688.36
2018-11-22T23:54:59.259Z,101683.09
2018-11-22T23:57:26.346Z,101684.63
2018-11-22T23:59:53.416Z,101686.85
